createdAt,value
2023-11-27T00:05:06.043Z,99877.73
2023-11-27T00:15:10.327Z,99878.73
2023-11-27T00:25:14.119Z,99880.32
2023-11-27T00:35:17.842Z,99884.84
2023-11-27T00:45:21.281Z,99886.16
2023-11-27T00:55:24.947Z,99886.32
2023-11-27T01:05:28.797Z,99887.29
2023-11-27T01:15:32.695Z,99879.06
2023-11-27T01:25:36.226Z,99873.14
2023-11-27T01:35:39.869Z,99863.83
2023-11-27T01:45:43.867Z,99857.62
2023-11-27T01:55:47.951Z,99853.52
2023-11-27T02:05:51.492Z,99856.20
2023-11-27T02:15:55.146Z,99857.85
2023-11-27T02:25:58.991Z,99852.36
2023-11-27T02:36:02.870Z,99843.47
2023-11-27T02:46:06.805Z,99846.15
2023-11-27T02:56:10.599Z,99843.09
2023-11-27T03:06:14.831Z,99844.02
2023-11-27T03:16:18.574Z,99828.46
2023-11-27T03:26:23.560Z,99812.48
2023-11-27T03:36:27.100Z,99806.66
2023-11-27T03:46:30.822Z,99798.19
2023-11-27T03:56:34.542Z,99802.31
2023-11-27T04:07:29.398Z,99797.73
2023-11-27T04:17:33.158Z,99798.98
2023-11-27T04:27:37.162Z,99797.86
2023-11-27T04:37:41.558Z,99809.20
2023-11-27T04:47:45.010Z,99810.24
2023-11-27T04:57:48.645Z,99804.77
2023-11-27T05:07:52.773Z,99792.98
2023-11-27T05:17:56.430Z,99789.70
2023-11-27T05:28:00.117Z,99785.85
2023-11-27T05:38:04.442Z,99793.67
2023-11-27T05:48:09.719Z,99800.23
2023-11-27T05:58:13.555Z,99798.38
2023-11-27T06:08:17.752Z,99793.63
2023-11-27T06:18:24.406Z,99791.63
2023-11-27T06:28:28.144Z,99788.80
2023-11-27T06:38:31.918Z,99800.53
2023-11-27T06:48:35.749Z,99797.34
2023-11-27T06:58:40.020Z,99792.01
2023-11-27T07:08:43.855Z,99787.42
2023-11-27T07:18:48.147Z,99789.30
2023-11-27T07:28:52.496Z,99792.25
2023-11-27T07:38:57.453Z,99783.03
2023-11-27T07:49:01.045Z,99771.91
2023-11-27T07:59:05.261Z,99767.49
2023-11-27T08:09:09.555Z,99773.30
2023-11-27T08:19:18.510Z,99780.11
2023-11-27T08:29:23.009Z,99785.36
2023-11-27T08:39:29.196Z,99789.27
2023-11-27T08:49:32.796Z,99789.30
2023-11-27T08:59:37.205Z,99788.24
2023-11-27T09:09:41.052Z,99785.51
2023-11-27T09:19:46.050Z,99775.14
2023-11-27T09:29:50.363Z,99761.14
2023-11-27T09:39:54.884Z,99757.29
2023-11-27T09:50:01.204Z,99753.41
2023-11-27T10:00:09.229Z,99743.27
2023-11-27T10:10:16.315Z,99742.15
2023-11-27T10:20:23.426Z,99732.51
2023-11-27T10:30:29.311Z,99719.20
2023-11-27T10:40:35.434Z,99706.89
2023-11-27T10:50:43.170Z,99701.98
2023-11-27T11:00:58.303Z,99696.89
2023-11-27T11:11:08.918Z,99687.75
2023-11-27T11:21:35.293Z,99670.52
2023-11-27T11:31:49.353Z,99677.96
2023-11-27T11:42:04.789Z,99674.23
2023-11-27T11:52:17.474Z,99675.17
2023-11-27T12:02:27.249Z,99656.88
2023-11-27T12:12:32.640Z,99649.01
2023-11-27T12:22:36.946Z,99648.45
2023-11-27T12:32:41.356Z,99646.80
2023-11-27T12:42:50.240Z,99643.20
2023-11-27T12:53:04.667Z,99640.36
2023-11-27T13:03:14.302Z,99629.95
2023-11-27T13:13:26.818Z,99620.98
2023-11-27T13:23:31.189Z,99602.21
2023-11-27T13:33:34.828Z,99593.86
2023-11-27T13:43:39.498Z,99587.45
2023-11-27T13:53:48.747Z,99580.70
2023-11-27T14:03:53.718Z,99564.35
2023-11-27T14:14:12.309Z,99551.20
2023-11-27T14:24:17.221Z,99537.88
2023-11-27T14:34:31.641Z,99524.21
2023-11-27T14:44:36.795Z,99517.80
2023-11-27T14:54:44.012Z,99518.32
2023-11-27T15:04:48.927Z,99519.34
2023-11-27T15:14:53.813Z,99501.93
2023-11-27T15:25:00.160Z,99491.46
2023-11-27T15:35:05.553Z,99480.83
2023-11-27T15:45:11.296Z,99463.79
2023-11-27T15:55:16.204Z,99468.68
2023-11-27T16:05:20.532Z,99462.77
2023-11-27T16:15:24.770Z,99452.64
2023-11-27T16:25:31.579Z,99445.55
2023-11-27T16:35:37.722Z,99441.15
2023-11-27T16:45:43.552Z,99436.25
2023-11-27T16:55:47.594Z,99430.98
2023-11-27T17:05:55.501Z,99416.59
2023-11-27T17:16:00.091Z,99413.25
2023-11-27T17:26:04.571Z,99398.95
2023-11-27T17:36:16.566Z,99391.88
2023-11-27T17:46:20.488Z,99387.17
2023-11-27T17:56:32.101Z,99375.66
2023-11-27T18:06:42.333Z,99364.44
2023-11-27T18:16:46.313Z,99355.59
2023-11-27T18:26:51.049Z,99358.81
2023-11-27T18:37:00.552Z,99354.75
2023-11-27T18:47:09.570Z,99351.28
2023-11-27T18:57:18.757Z,99340.33
2023-11-27T19:07:22.917Z,99339.08
2023-11-27T19:17:29.342Z,99327.12
2023-11-27T19:27:39.469Z,99311.09
2023-11-27T19:37:44.454Z,99302.75
2023-11-27T19:47:48.868Z,99293.79
2023-11-27T19:57:55.438Z,99285.04
2023-11-27T20:08:00.208Z,99290.09
2023-11-27T20:18:05.247Z,99281.52
2023-11-27T20:28:10.115Z,99275.44
2023-11-27T20:38:17.556Z,99254.69
2023-11-27T20:48:23.008Z,99252.11
2023-11-27T20:58:29.441Z,99243.10
2023-11-27T21:08:34.092Z,99241.33
2023-11-27T21:18:38.270Z,99238.01
2023-11-27T21:28:44.850Z,99228.55
2023-11-27T21:38:48.859Z,99220.27
2023-11-27T21:48:53.017Z,99212.80
2023-11-27T21:59:00.074Z,99187.95
2023-11-27T22:09:05.075Z,99181.23
2023-11-27T22:19:08.769Z,99174.01
2023-11-27T22:29:12.751Z,99160.72
2023-11-27T22:39:19.689Z,99151.92
2023-11-27T22:49:23.950Z,99149.50
2023-11-27T22:59:27.755Z,99143.28
2023-11-27T23:09:31.614Z,99136.45
2023-11-27T23:19:35.251Z,99127.95
2023-11-27T23:29:39.424Z,99116.16
2023-11-27T23:39:42.970Z,99114.36
2023-11-27T23:49:47.256Z,99111.49
2023-11-27T23:59:51.312Z,99106.61
